sensor_id;sensor_type;location;lat;lon;timestamp;temperature;humidity
20487;DHT22;10402;49.012;8.370;2023-07-22T00:01:38;20.10;67.10
20487;DHT22;10402;49.012;8.370;2023-07-22T00:04:03;20.10;67.30
20487;DHT22;10402;49.012;8.370;2023-07-22T00:06:29;20.00;67.30
20487;DHT22;10402;49.012;8.370;2023-07-22T00:08:55;20.00;67.30
20487;DHT22;10402;49.012;8.370;2023-07-22T00:11:21;20.00;67.30
20487;DHT22;10402;49.012;8.370;2023-07-22T00:13:46;20.00;67.30
20487;DHT22;10402;49.012;8.370;2023-07-22T00:16:12;20.00;67.30
20487;DHT22;10402;49.012;8.370;2023-07-22T00:18:38;20.00;67.30
20487;DHT22;10402;49.012;8.370;2023-07-22T00:21:03;20.00;67.20
20487;DHT22;10402;49.012;8.370;2023-07-22T00:23:29;20.10;67.20
20487;DHT22;10402;49.012;8.370;2023-07-22T00:25:55;20.00;67.20
20487;DHT22;10402;49.012;8.370;2023-07-22T00:28:21;20.00;67.20
20487;DHT22;10402;49.012;8.370;2023-07-22T00:30:46;20.00;67.30
20487;DHT22;10402;49.012;8.370;2023-07-22T00:33:14;20.00;67.30
20487;DHT22;10402;49.012;8.370;2023-07-22T00:35:40;19.90;67.20
20487;DHT22;10402;49.012;8.370;2023-07-22T00:38:05;20.00;67.40
20487;DHT22;10402;49.012;8.370;2023-07-22T00:40:31;19.90;67.40
20487;DHT22;10402;49.012;8.370;2023-07-22T00:42:57;20.00;67.40
20487;DHT22;10402;49.012;8.370;2023-07-22T00:45:24;19.90;67.40
20487;DHT22;10402;49.012;8.370;2023-07-22T00:47:49;19.90;67.50
20487;DHT22;10402;49.012;8.370;2023-07-22T00:50:15;19.90;67.40
20487;DHT22;10402;49.012;8.370;2023-07-22T00:52:41;19.90;67.40
20487;DHT22;10402;49.012;8.370;2023-07-22T00:55:07;19.80;67.10
20487;DHT22;10402;49.012;8.370;2023-07-22T00:57:33;19.80;67.20
20487;DHT22;10402;49.012;8.370;2023-07-22T00:59:59;19.80;67.20
20487;DHT22;10402;49.012;8.370;2023-07-22T01:02:24;19.80;67.10
20487;DHT22;10402;49.012;8.370;2023-07-22T01:04:50;19.80;67.10
20487;DHT22;10402;49.012;8.370;2023-07-22T01:07:17;19.70;67.00
20487;DHT22;10402;49.012;8.370;2023-07-22T01:09:43;19.70;67.20
20487;DHT22;10402;49.012;8.370;2023-07-22T01:12:10;19.60;67.20
20487;DHT22;10402;49.012;8.370;2023-07-22T01:14:37;19.60;67.50
20487;DHT22;10402;49.012;8.370;2023-07-22T01:17:04;19.60;68.40
20487;DHT22;10402;49.012;8.370;2023-07-22T01:19:30;19.60;67.60
20487;DHT22;10402;49.012;8.370;2023-07-22T01:21:59;19.60;67.70
20487;DHT22;10402;49.012;8.370;2023-07-22T01:24:25;19.50;67.60
20487;DHT22;10402;49.012;8.370;2023-07-22T01:26:51;19.50;67.90
20487;DHT22;10402;49.012;8.370;2023-07-22T01:29:17;19.50;68.00
20487;DHT22;10402;49.012;8.370;2023-07-22T01:31:46;19.40;68.10
20487;DHT22;10402;49.012;8.370;2023-07-22T01:34:12;19.40;68.20
20487;DHT22;10402;49.012;8.370;2023-07-22T01:36:38;19.40;68.30
20487;DHT22;10402;49.012;8.370;2023-07-22T01:39:03;19.30;68.30
20487;DHT22;10402;49.012;8.370;2023-07-22T01:41:31;19.30;68.40
20487;DHT22;10402;49.012;8.370;2023-07-22T01:43:56;19.30;68.40
20487;DHT22;10402;49.012;8.370;2023-07-22T01:46:22;19.30;68.40
20487;DHT22;10402;49.012;8.370;2023-07-22T01:48:47;19.30;68.30
20487;DHT22;10402;49.012;8.370;2023-07-22T01:51:13;19.20;69.10
20487;DHT22;10402;49.012;8.370;2023-07-22T01:53:38;19.20;68.70
20487;DHT22;10402;49.012;8.370;2023-07-22T01:56:04;19.20;68.80
20487;DHT22;10402;49.012;8.370;2023-07-22T01:58:30;19.10;68.80
20487;DHT22;10402;49.012;8.370;2023-07-22T02:00:56;19.00;68.90
20487;DHT22;10402;49.012;8.370;2023-07-22T02:03:21;19.00;69.10
20487;DHT22;10402;49.012;8.370;2023-07-22T02:05:47;18.90;69.30
20487;DHT22;10402;49.012;8.370;2023-07-22T02:08:12;18.90;69.50
20487;DHT22;10402;49.012;8.370;2023-07-22T02:10:38;18.80;69.60
20487;DHT22;10402;49.012;8.370;2023-07-22T02:13:03;18.70;69.70
20487;DHT22;10402;49.012;8.370;2023-07-22T02:15:31;18.70;69.70
20487;DHT22;10402;49.012;8.370;2023-07-22T02:17:57;18.70;69.70
20487;DHT22;10402;49.012;8.370;2023-07-22T02:20:22;18.70;69.70
20487;DHT22;10402;49.012;8.370;2023-07-22T02:22:49;18.70;69.70
20487;DHT22;10402;49.012;8.370;2023-07-22T02:25:14;18.70;69.80
20487;DHT22;10402;49.012;8.370;2023-07-22T02:27:40;18.70;69.80
20487;DHT22;10402;49.012;8.370;2023-07-22T02:30:07;18.60;69.80
20487;DHT22;10402;49.012;8.370;2023-07-22T02:32:38;18.60;69.90
20487;DHT22;10402;49.012;8.370;2023-07-22T02:35:05;18.60;70.00
20487;DHT22;10402;49.012;8.370;2023-07-22T02:37:31;18.50;70.10
20487;DHT22;10402;49.012;8.370;2023-07-22T02:39:56;18.50;70.10
20487;DHT22;10402;49.012;8.370;2023-07-22T02:42:22;18.50;70.20
20487;DHT22;10402;49.012;8.370;2023-07-22T02:44:47;18.40;70.10
20487;DHT22;10402;49.012;8.370;2023-07-22T02:47:13;18.40;70.20
20487;DHT22;10402;49.012;8.370;2023-07-22T02:49:39;18.40;70.30
20487;DHT22;10402;49.012;8.370;2023-07-22T02:52:05;18.40;70.30
20487;DHT22;10402;49.012;8.370;2023-07-22T02:54:37;18.40;70.30
20487;DHT22;10402;49.012;8.370;2023-07-22T02:57:03;18.40;70.40
20487;DHT22;10402;49.012;8.370;2023-07-22T02:59:29;18.30;70.40
20487;DHT22;10402;49.012;8.370;2023-07-22T03:01:54;18.30;70.60
20487;DHT22;10402;49.012;8.370;2023-07-22T03:04:20;18.20;70.70
20487;DHT22;10402;49.012;8.370;2023-07-22T03:06:46;18.20;70.70
20487;DHT22;10402;49.012;8.370;2023-07-22T03:09:11;18.10;70.60
20487;DHT22;10402;49.012;8.370;2023-07-22T03:11:37;18.10;70.60
20487;DHT22;10402;49.012;8.370;2023-07-22T03:14:02;18.10;70.60
20487;DHT22;10402;49.012;8.370;2023-07-22T03:16:28;18.10;70.60
20487;DHT22;10402;49.012;8.370;2023-07-22T03:18:53;18.10;70.60
20487;DHT22;10402;49.012;8.370;2023-07-22T03:21:19;18.10;70.70
20487;DHT22;10402;49.012;8.370;2023-07-22T03:23:44;18.10;70.70
20487;DHT22;10402;49.012;8.370;2023-07-22T03:26:10;18.10;70.70
20487;DHT22;10402;49.012;8.370;2023-07-22T03:28:35;18.10;70.80
20487;DHT22;10402;49.012;8.370;2023-07-22T03:31:01;18.00;70.90
20487;DHT22;10402;49.012;8.370;2023-07-22T03:33:27;18.00;70.90
20487;DHT22;10402;49.012;8.370;2023-07-22T03:35:52;18.00;70.90
20487;DHT22;10402;49.012;8.370;2023-07-22T03:38:18;18.00;71.00
20487;DHT22;10402;49.012;8.370;2023-07-22T03:40:44;18.00;71.10
20487;DHT22;10402;49.012;8.370;2023-07-22T03:43:09;18.00;71.20
20487;DHT22;10402;49.012;8.370;2023-07-22T03:45:35;18.00;71.20
20487;DHT22;10402;49.012;8.370;2023-07-22T03:48:00;18.00;71.30
20487;DHT22;10402;49.012;8.370;2023-07-22T03:50:27;18.00;71.40
20487;DHT22;10402;49.012;8.370;2023-07-22T03:52:52;17.90;71.40
20487;DHT22;10402;49.012;8.370;2023-07-22T03:55:18;17.90;71.60
20487;DHT22;10402;49.012;8.370;2023-07-22T03:57:45;18.00;71.70
20487;DHT22;10402;49.012;8.370;2023-07-22T04:00:11;18.00;71.70
20487;DHT22;10402;49.012;8.370;2023-07-22T04:02:36;18.00;71.70
20487;DHT22;10402;49.012;8.370;2023-07-22T04:05:02;18.00;71.80
20487;DHT22;10402;49.012;8.370;2023-07-22T04:07:28;18.00;72.00
20487;DHT22;10402;49.012;8.370;2023-07-22T04:09:54;18.00;72.00
20487;DHT22;10402;49.012;8.370;2023-07-22T04:12:19;18.00;72.10
20487;DHT22;10402;49.012;8.370;2023-07-22T04:14:45;17.90;72.10
20487;DHT22;10402;49.012;8.370;2023-07-22T04:17:10;17.90;72.30
20487;DHT22;10402;49.012;8.370;2023-07-22T04:19:36;17.90;72.60
20487;DHT22;10402;49.012;8.370;2023-07-22T04:22:02;17.90;72.70
20487;DHT22;10402;49.012;8.370;2023-07-22T04:24:32;17.90;72.80
20487;DHT22;10402;49.012;8.370;2023-07-22T04:26:58;17.90;73.00
20487;DHT22;10402;49.012;8.370;2023-07-22T04:29:24;17.90;73.00
20487;DHT22;10402;49.012;8.370;2023-07-22T04:31:49;17.90;72.90
20487;DHT22;10402;49.012;8.370;2023-07-22T04:34:16;17.90;73.00
20487;DHT22;10402;49.012;8.370;2023-07-22T04:36:42;18.00;73.20
20487;DHT22;10402;49.012;8.370;2023-07-22T04:39:08;18.00;73.40
20487;DHT22;10402;49.012;8.370;2023-07-22T04:41:34;18.00;73.40
20487;DHT22;10402;49.012;8.370;2023-07-22T04:43:59;18.00;73.30
20487;DHT22;10402;49.012;8.370;2023-07-22T04:46:25;18.00;73.30
20487;DHT22;10402;49.012;8.370;2023-07-22T04:48:54;18.00;73.40
20487;DHT22;10402;49.012;8.370;2023-07-22T04:51:20;18.00;73.60
20487;DHT22;10402;49.012;8.370;2023-07-22T04:53:45;18.00;73.70
20487;DHT22;10402;49.012;8.370;2023-07-22T04:56:11;18.00;73.90
20487;DHT22;10402;49.012;8.370;2023-07-22T04:58:36;18.00;74.10
20487;DHT22;10402;49.012;8.370;2023-07-22T05:01:02;18.00;74.10
20487;DHT22;10402;49.012;8.370;2023-07-22T05:03:27;18.00;74.10
20487;DHT22;10402;49.012;8.370;2023-07-22T05:05:53;18.00;74.20
20487;DHT22;10402;49.012;8.370;2023-07-22T05:08:19;18.00;74.30
20487;DHT22;10402;49.012;8.370;2023-07-22T05:10:44;18.00;74.10
20487;DHT22;10402;49.012;8.370;2023-07-22T05:13:10;18.00;73.90
20487;DHT22;10402;49.012;8.370;2023-07-22T05:15:35;17.90;74.00
20487;DHT22;10402;49.012;8.370;2023-07-22T05:18:01;17.90;74.00
20487;DHT22;10402;49.012;8.370;2023-07-22T05:20:26;17.90;73.90
20487;DHT22;10402;49.012;8.370;2023-07-22T05:22:52;17.90;74.00
20487;DHT22;10402;49.012;8.370;2023-07-22T05:25:18;17.90;73.90
20487;DHT22;10402;49.012;8.370;2023-07-22T05:27:43;17.90;73.90
20487;DHT22;10402;49.012;8.370;2023-07-22T05:30:09;18.00;74.00
20487;DHT22;10402;49.012;8.370;2023-07-22T05:32:35;18.00;74.00
20487;DHT22;10402;49.012;8.370;2023-07-22T05:35:01;18.10;73.90
20487;DHT22;10402;49.012;8.370;2023-07-22T05:37:29;18.10;73.80
20487;DHT22;10402;49.012;8.370;2023-07-22T05:39:54;18.20;73.70
20487;DHT22;10402;49.012;8.370;2023-07-22T05:42:20;18.20;73.60
20487;DHT22;10402;49.012;8.370;2023-07-22T05:44:46;18.20;73.40
20487;DHT22;10402;49.012;8.370;2023-07-22T05:47:11;18.30;73.40
20487;DHT22;10402;49.012;8.370;2023-07-22T05:49:37;18.40;73.30
20487;DHT22;10402;49.012;8.370;2023-07-22T05:52:02;18.40;73.10
20487;DHT22;10402;49.012;8.370;2023-07-22T05:54:28;18.40;73.00
20487;DHT22;10402;49.012;8.370;2023-07-22T05:56:53;18.40;73.00
20487;DHT22;10402;49.012;8.370;2023-07-22T05:59:19;18.50;73.00
20487;DHT22;10402;49.012;8.370;2023-07-22T06:01:45;18.50;73.00
20487;DHT22;10402;49.012;8.370;2023-07-22T06:04:10;18.50;72.90
20487;DHT22;10402;49.012;8.370;2023-07-22T06:06:36;18.60;72.80
20487;DHT22;10402;49.012;8.370;2023-07-22T06:09:02;18.70;72.80
20487;DHT22;10402;49.012;8.370;2023-07-22T06:11:27;18.70;72.50
20487;DHT22;10402;49.012;8.370;2023-07-22T06:13:54;18.70;72.50
20487;DHT22;10402;49.012;8.370;2023-07-22T06:16:19;18.70;72.60
20487;DHT22;10402;49.012;8.370;2023-07-22T06:18:45;18.70;72.70
20487;DHT22;10402;49.012;8.370;2023-07-22T06:21:10;18.70;72.70
20487;DHT22;10402;49.012;8.370;2023-07-22T06:23:36;18.70;72.70
20487;DHT22;10402;49.012;8.370;2023-07-22T06:26:02;18.70;72.70
20487;DHT22;10402;49.012;8.370;2023-07-22T06:28:27;18.80;72.80
20487;DHT22;10402;49.012;8.370;2023-07-22T06:30:53;18.80;72.70
20487;DHT22;10402;49.012;8.370;2023-07-22T06:33:18;18.90;72.70
20487;DHT22;10402;49.012;8.370;2023-07-22T06:35:44;19.00;72.70
20487;DHT22;10402;49.012;8.370;2023-07-22T06:38:09;19.00;72.60
20487;DHT22;10402;49.012;8.370;2023-07-22T06:40:35;19.10;72.60
20487;DHT22;10402;49.012;8.370;2023-07-22T06:43:00;19.20;72.40
20487;DHT22;10402;49.012;8.370;2023-07-22T06:45:26;19.20;72.10
20487;DHT22;10402;49.012;8.370;2023-07-22T06:47:51;19.30;71.90
20487;DHT22;10402;49.012;8.370;2023-07-22T06:50:17;19.40;71.90
20487;DHT22;10402;49.012;8.370;2023-07-22T06:52:43;19.40;71.70
20487;DHT22;10402;49.012;8.370;2023-07-22T06:55:08;19.40;71.60
20487;DHT22;10402;49.012;8.370;2023-07-22T06:57:34;19.40;71.50
20487;DHT22;10402;49.012;8.370;2023-07-22T06:59:59;19.50;71.30
20487;DHT22;10402;49.012;8.370;2023-07-22T07:02:26;19.50;71.10
20487;DHT22;10402;49.012;8.370;2023-07-22T07:04:51;19.60;71.00
20487;DHT22;10402;49.012;8.370;2023-07-22T07:07:17;19.60;70.70
20487;DHT22;10402;49.012;8.370;2023-07-22T07:09:43;19.70;70.50
20487;DHT22;10402;49.012;8.370;2023-07-22T07:12:08;19.80;70.40
20487;DHT22;10402;49.012;8.370;2023-07-22T07:14:34;19.80;70.20
20487;DHT22;10402;49.012;8.370;2023-07-22T07:17:00;19.90;70.00
20487;DHT22;10402;49.012;8.370;2023-07-22T07:19:27;19.90;69.70
20487;DHT22;10402;49.012;8.370;2023-07-22T07:21:53;20.00;69.60
20487;DHT22;10402;49.012;8.370;2023-07-22T07:24:18;20.00;69.60
20487;DHT22;10402;49.012;8.370;2023-07-22T07:26:44;20.10;69.40
20487;DHT22;10402;49.012;8.370;2023-07-22T07:29:10;20.20;69.20
20487;DHT22;10402;49.012;8.370;2023-07-22T07:31:36;20.20;69.00
20487;DHT22;10402;49.012;8.370;2023-07-22T07:34:02;20.20;68.80
20487;DHT22;10402;49.012;8.370;2023-07-22T07:36:27;20.20;68.80
20487;DHT22;10402;49.012;8.370;2023-07-22T07:38:53;20.20;68.80
20487;DHT22;10402;49.012;8.370;2023-07-22T07:41:19;20.20;68.60
20487;DHT22;10402;49.012;8.370;2023-07-22T07:43:44;20.30;68.60
20487;DHT22;10402;49.012;8.370;2023-07-22T07:46:27;20.40;68.50
20487;DHT22;10402;49.012;8.370;2023-07-22T07:48:55;20.40;68.30
20487;DHT22;10402;49.012;8.370;2023-07-22T07:51:22;20.40;68.20
20487;DHT22;10402;49.012;8.370;2023-07-22T07:53:48;20.40;68.20
20487;DHT22;10402;49.012;8.370;2023-07-22T07:56:15;20.50;68.20
20487;DHT22;10402;49.012;8.370;2023-07-22T07:58:41;20.50;68.00
20487;DHT22;10402;49.012;8.370;2023-07-22T08:01:07;20.50;68.10
20487;DHT22;10402;49.012;8.370;2023-07-22T08:03:33;20.50;68.90
20487;DHT22;10402;49.012;8.370;2023-07-22T08:06:00;20.50;67.80
20487;DHT22;10402;49.012;8.370;2023-07-22T08:08:26;20.60;67.80
20487;DHT22;10402;49.012;8.370;2023-07-22T08:11:02;20.60;67.70
20487;DHT22;10402;49.012;8.370;2023-07-22T08:13:27;20.60;67.60
20487;DHT22;10402;49.012;8.370;2023-07-22T08:15:55;20.70;67.40
20487;DHT22;10402;49.012;8.370;2023-07-22T08:18:20;20.80;67.40
20487;DHT22;10402;49.012;8.370;2023-07-22T08:20:46;20.80;67.00
20487;DHT22;10402;49.012;8.370;2023-07-22T08:23:13;20.90;66.80
20487;DHT22;10402;49.012;8.370;2023-07-22T08:25:39;20.90;66.40
20487;DHT22;10402;49.012;8.370;2023-07-22T08:28:04;21.00;66.30
20487;DHT22;10402;49.012;8.370;2023-07-22T08:30:30;21.00;66.00
20487;DHT22;10402;49.012;8.370;2023-07-22T08:32:55;21.00;65.80
20487;DHT22;10402;49.012;8.370;2023-07-22T08:35:21;21.10;65.80
20487;DHT22;10402;49.012;8.370;2023-07-22T08:37:48;21.10;65.70
20487;DHT22;10402;49.012;8.370;2023-07-22T08:40:13;21.20;65.50
20487;DHT22;10402;49.012;8.370;2023-07-22T08:42:40;21.20;65.20
20487;DHT22;10402;49.012;8.370;2023-07-22T08:45:09;21.30;65.10
20487;DHT22;10402;49.012;8.370;2023-07-22T08:47:38;21.40;65.00
20487;DHT22;10402;49.012;8.370;2023-07-22T08:50:06;21.40;64.90
20487;DHT22;10402;49.012;8.370;2023-07-22T08:52:33;21.50;64.70
20487;DHT22;10402;49.012;8.370;2023-07-22T08:55:00;21.50;64.60
20487;DHT22;10402;49.012;8.370;2023-07-22T08:57:27;21.60;64.30
20487;DHT22;10402;49.012;8.370;2023-07-22T08:59:54;21.80;64.30
20487;DHT22;10402;49.012;8.370;2023-07-22T09:02:21;21.80;64.00
20487;DHT22;10402;49.012;8.370;2023-07-22T09:04:46;22.00;63.80
20487;DHT22;10402;49.012;8.370;2023-07-22T09:07:12;22.00;63.20
20487;DHT22;10402;49.012;8.370;2023-07-22T09:09:38;22.20;62.90
20487;DHT22;10402;49.012;8.370;2023-07-22T09:12:05;22.20;62.40
20487;DHT22;10402;49.012;8.370;2023-07-22T09:14:33;22.30;62.30
20487;DHT22;10402;49.012;8.370;2023-07-22T09:16:59;22.30;62.10
20487;DHT22;10402;49.012;8.370;2023-07-22T09:19:25;22.50;61.70
20487;DHT22;10402;49.012;8.370;2023-07-22T09:21:50;22.50;61.60
20487;DHT22;10402;49.012;8.370;2023-07-22T09:24:24;22.50;60.80
20487;DHT22;10402;49.012;8.370;2023-07-22T09:26:51;22.60;60.70
20487;DHT22;10402;49.012;8.370;2023-07-22T09:29:17;22.60;60.20
20487;DHT22;10402;49.012;8.370;2023-07-22T09:31:50;22.70;59.60
20487;DHT22;10402;49.012;8.370;2023-07-22T09:34:17;22.70;58.90
20487;DHT22;10402;49.012;8.370;2023-07-22T09:36:52;22.70;58.90
20487;DHT22;10402;49.012;8.370;2023-07-22T09:39:18;22.80;58.80
20487;DHT22;10402;49.012;8.370;2023-07-22T09:41:43;22.80;58.40
20487;DHT22;10402;49.012;8.370;2023-07-22T09:44:12;22.80;58.40
20487;DHT22;10402;49.012;8.370;2023-07-22T09:46:38;22.80;58.70
20487;DHT22;10402;49.012;8.370;2023-07-22T09:49:05;22.80;58.50
20487;DHT22;10402;49.012;8.370;2023-07-22T09:51:39;22.90;58.10
20487;DHT22;10402;49.012;8.370;2023-07-22T09:54:05;22.90;58.20
20487;DHT22;10402;49.012;8.370;2023-07-22T09:56:33;22.90;58.30
20487;DHT22;10402;49.012;8.370;2023-07-22T09:59:08;23.00;58.30
20487;DHT22;10402;49.012;8.370;2023-07-22T10:01:37;23.00;58.10
20487;DHT22;10402;49.012;8.370;2023-07-22T10:04:04;23.00;58.20
20487;DHT22;10402;49.012;8.370;2023-07-22T10:06:33;23.00;58.30
20487;DHT22;10402;49.012;8.370;2023-07-22T10:09:03;23.00;58.30
20487;DHT22;10402;49.012;8.370;2023-07-22T10:11:33;23.10;58.40
20487;DHT22;10402;49.012;8.370;2023-07-22T10:13:59;23.10;58.20
20487;DHT22;10402;49.012;8.370;2023-07-22T10:16:25;23.20;58.20
20487;DHT22;10402;49.012;8.370;2023-07-22T10:18:51;23.30;58.00
20487;DHT22;10402;49.012;8.370;2023-07-22T10:21:17;23.30;57.80
20487;DHT22;10402;49.012;8.370;2023-07-22T10:23:44;23.40;57.50
20487;DHT22;10402;49.012;8.370;2023-07-22T10:26:15;23.50;57.20
20487;DHT22;10402;49.012;8.370;2023-07-22T10:28:43;23.50;57.00
20487;DHT22;10402;49.012;8.370;2023-07-22T10:31:09;23.60;57.00
20487;DHT22;10402;49.012;8.370;2023-07-22T10:33:35;23.70;57.00
20487;DHT22;10402;49.012;8.370;2023-07-22T10:36:08;23.70;56.50
20487;DHT22;10402;49.012;8.370;2023-07-22T10:38:37;23.80;56.30
20487;DHT22;10402;49.012;8.370;2023-07-22T10:41:12;23.80;55.70
20487;DHT22;10402;49.012;8.370;2023-07-22T10:43:38;23.80;55.60
20487;DHT22;10402;49.012;8.370;2023-07-22T10:46:12;23.90;55.40
20487;DHT22;10402;49.012;8.370;2023-07-22T10:48:39;23.90;55.20
20487;DHT22;10402;49.012;8.370;2023-07-22T10:51:15;23.90;55.20
20487;DHT22;10402;49.012;8.370;2023-07-22T10:53:46;23.90;55.30
20487;DHT22;10402;49.012;8.370;2023-07-22T10:56:15;23.90;55.30
20487;DHT22;10402;49.012;8.370;2023-07-22T11:04:23;24.00;55.10
20487;DHT22;10402;49.012;8.370;2023-07-22T11:07:05;24.00;54.80
20487;DHT22;10402;49.012;8.370;2023-07-22T11:15:01;24.10;54.80
20487;DHT22;10402;49.012;8.370;2023-07-22T11:17:28;24.10;54.20
20487;DHT22;10402;49.012;8.370;2023-07-22T11:20:01;24.00;53.40
20487;DHT22;10402;49.012;8.370;2023-07-22T11:22:27;24.10;53.80
20487;DHT22;10402;49.012;8.370;2023-07-22T11:24:56;24.10;53.60
20487;DHT22;10402;49.012;8.370;2023-07-22T11:27:23;24.20;53.60
20487;DHT22;10402;49.012;8.370;2023-07-22T11:29:49;24.30;53.50
20487;DHT22;10402;49.012;8.370;2023-07-22T11:32:19;24.30;53.00
20487;DHT22;10402;49.012;8.370;2023-07-22T11:34:48;24.30;52.70
20487;DHT22;10402;49.012;8.370;2023-07-22T11:37:13;24.30;52.40
20487;DHT22;10402;49.012;8.370;2023-07-22T11:39:40;24.40;52.40
20487;DHT22;10402;49.012;8.370;2023-07-22T11:42:07;24.40;52.30
20487;DHT22;10402;49.012;8.370;2023-07-22T11:44:33;24.50;52.10
20487;DHT22;10402;49.012;8.370;2023-07-22T11:49:32;24.50;52.00
20487;DHT22;10402;49.012;8.370;2023-07-22T11:52:00;24.50;51.80
20487;DHT22;10402;49.012;8.370;2023-07-22T11:54:27;24.50;51.70
20487;DHT22;10402;49.012;8.370;2023-07-22T11:56:53;24.50;51.60
20487;DHT22;10402;49.012;8.370;2023-07-22T11:59:37;24.40;51.60
20487;DHT22;10402;49.012;8.370;2023-07-22T12:02:03;24.40;51.10
20487;DHT22;10402;49.012;8.370;2023-07-22T12:04:34;24.40;51.10
20487;DHT22;10402;49.012;8.370;2023-07-22T12:07:00;24.30;51.00
20487;DHT22;10402;49.012;8.370;2023-07-22T12:09:26;24.40;51.20
20487;DHT22;10402;49.012;8.370;2023-07-22T12:11:57;24.40;51.10
20487;DHT22;10402;49.012;8.370;2023-07-22T12:14:24;24.50;51.10
20487;DHT22;10402;49.012;8.370;2023-07-22T12:16:55;24.50;51.10
20487;DHT22;10402;49.012;8.370;2023-07-22T12:19:22;24.50;50.90
20487;DHT22;10402;49.012;8.370;2023-07-22T12:21:47;24.60;51.00
20487;DHT22;10402;49.012;8.370;2023-07-22T12:24:14;24.70;50.80
20487;DHT22;10402;49.012;8.370;2023-07-22T12:26:40;24.70;50.80
20487;DHT22;10402;49.012;8.370;2023-07-22T12:29:05;24.80;50.80
20487;DHT22;10402;49.012;8.370;2023-07-22T12:31:31;24.80;50.80
20487;DHT22;10402;49.012;8.370;2023-07-22T12:33:56;24.80;50.40
20487;DHT22;10402;49.012;8.370;2023-07-22T12:36:22;24.80;50.00
20487;DHT22;10402;49.012;8.370;2023-07-22T12:38:48;24.90;50.00
20487;DHT22;10402;49.012;8.370;2023-07-22T12:41:14;24.90;49.90
20487;DHT22;10402;49.012;8.370;2023-07-22T12:43:39;25.00;49.90
20487;DHT22;10402;49.012;8.370;2023-07-22T12:46:05;25.00;49.40
20487;DHT22;10402;49.012;8.370;2023-07-22T12:48:30;25.00;49.20
20487;DHT22;10402;49.012;8.370;2023-07-22T12:50:56;25.00;49.00
20487;DHT22;10402;49.012;8.370;2023-07-22T12:53:22;25.10;49.10
20487;DHT22;10402;49.012;8.370;2023-07-22T12:55:47;25.00;49.00
20487;DHT22;10402;49.012;8.370;2023-07-22T12:58:13;25.10;48.80
20487;DHT22;10402;49.012;8.370;2023-07-22T13:00:39;25.10;48.70
20487;DHT22;10402;49.012;8.370;2023-07-22T13:03:05;25.20;48.60
20487;DHT22;10402;49.012;8.370;2023-07-22T13:05:30;25.30;48.40
20487;DHT22;10402;49.012;8.370;2023-07-22T13:07:56;25.30;47.70
20487;DHT22;10402;49.012;8.370;2023-07-22T13:10:22;25.30;47.50
20487;DHT22;10402;49.012;8.370;2023-07-22T13:12:48;25.40;47.30
20487;DHT22;10402;49.012;8.370;2023-07-22T13:15:14;25.40;47.20
20487;DHT22;10402;49.012;8.370;2023-07-22T13:17:39;25.40;46.90
20487;DHT22;10402;49.012;8.370;2023-07-22T13:20:06;25.40;46.60
20487;DHT22;10402;49.012;8.370;2023-07-22T13:22:32;25.40;46.50
20487;DHT22;10402;49.012;8.370;2023-07-22T13:24:58;25.50;46.80
20487;DHT22;10402;49.012;8.370;2023-07-22T13:27:23;25.50;46.70
20487;DHT22;10402;49.012;8.370;2023-07-22T13:29:49;25.50;45.80
20487;DHT22;10402;49.012;8.370;2023-07-22T13:32:14;25.60;45.90
20487;DHT22;10402;49.012;8.370;2023-07-22T13:34:40;25.60;46.40
20487;DHT22;10402;49.012;8.370;2023-07-22T13:37:05;25.60;45.70
20487;DHT22;10402;49.012;8.370;2023-07-22T13:39:31;25.60;45.70
20487;DHT22;10402;49.012;8.370;2023-07-22T13:41:57;25.60;45.60
20487;DHT22;10402;49.012;8.370;2023-07-22T13:44:22;25.60;45.60
20487;DHT22;10402;49.012;8.370;2023-07-22T13:46:48;25.70;45.80
20487;DHT22;10402;49.012;8.370;2023-07-22T13:49:13;25.70;45.80
20487;DHT22;10402;49.012;8.370;2023-07-22T13:51:40;25.70;45.70
20487;DHT22;10402;49.012;8.370;2023-07-22T13:54:06;25.70;45.50
20487;DHT22;10402;49.012;8.370;2023-07-22T13:56:32;25.80;45.40
20487;DHT22;10402;49.012;8.370;2023-07-22T13:58:57;25.80;45.40
20487;DHT22;10402;49.012;8.370;2023-07-22T14:01:24;25.80;45.20
20487;DHT22;10402;49.012;8.370;2023-07-22T14:03:50;25.80;44.80
20487;DHT22;10402;49.012;8.370;2023-07-22T14:06:15;25.80;44.40
20487;DHT22;10402;49.012;8.370;2023-07-22T14:08:41;25.80;44.70
20487;DHT22;10402;49.012;8.370;2023-07-22T14:11:08;25.80;44.80
20487;DHT22;10402;49.012;8.370;2023-07-22T14:13:33;25.80;44.70
20487;DHT22;10402;49.012;8.370;2023-07-22T14:15:59;25.90;44.70
20487;DHT22;10402;49.012;8.370;2023-07-22T14:18:24;25.90;44.50
20487;DHT22;10402;49.012;8.370;2023-07-22T14:20:50;25.90;44.30
20487;DHT22;10402;49.012;8.370;2023-07-22T14:23:15;25.90;44.40
20487;DHT22;10402;49.012;8.370;2023-07-22T14:25:41;25.90;44.60
20487;DHT22;10402;49.012;8.370;2023-07-22T14:28:07;25.90;44.40
20487;DHT22;10402;49.012;8.370;2023-07-22T14:30:32;25.90;44.10
20487;DHT22;10402;49.012;8.370;2023-07-22T14:32:58;25.90;44.10
20487;DHT22;10402;49.012;8.370;2023-07-22T14:35:24;25.90;44.10
20487;DHT22;10402;49.012;8.370;2023-07-22T14:37:50;25.90;44.20
20487;DHT22;10402;49.012;8.370;2023-07-22T14:40:16;25.90;44.10
20487;DHT22;10402;49.012;8.370;2023-07-22T14:42:41;26.00;44.00
20487;DHT22;10402;49.012;8.370;2023-07-22T14:45:07;26.00;44.10
20487;DHT22;10402;49.012;8.370;2023-07-22T14:47:33;26.10;43.60
20487;DHT22;10402;49.012;8.370;2023-07-22T14:50:00;26.10;43.20
20487;DHT22;10402;49.012;8.370;2023-07-22T14:52:26;26.20;43.10
20487;DHT22;10402;49.012;8.370;2023-07-22T14:54:51;26.20;42.90
20487;DHT22;10402;49.012;8.370;2023-07-22T14:57:17;26.30;42.70
20487;DHT22;10402;49.012;8.370;2023-07-22T14:59:43;26.20;42.70
20487;DHT22;10402;49.012;8.370;2023-07-22T15:02:08;26.20;42.30
20487;DHT22;10402;49.012;8.370;2023-07-22T15:04:34;26.20;42.30
20487;DHT22;10402;49.012;8.370;2023-07-22T15:07:00;26.30;42.00
20487;DHT22;10402;49.012;8.370;2023-07-22T15:09:25;26.30;42.30
20487;DHT22;10402;49.012;8.370;2023-07-22T15:11:51;26.30;42.00
20487;DHT22;10402;49.012;8.370;2023-07-22T15:14:16;26.30;42.00
20487;DHT22;10402;49.012;8.370;2023-07-22T15:16:42;26.40;42.00
20487;DHT22;10402;49.012;8.370;2023-07-22T15:19:08;26.40;42.10
20487;DHT22;10402;49.012;8.370;2023-07-22T15:21:34;26.40;42.10
20487;DHT22;10402;49.012;8.370;2023-07-22T15:23:59;26.40;41.80
20487;DHT22;10402;49.012;8.370;2023-07-22T15:26:25;26.40;41.70
20487;DHT22;10402;49.012;8.370;2023-07-22T15:28:51;26.40;41.80
20487;DHT22;10402;49.012;8.370;2023-07-22T15:31:17;26.40;42.00
20487;DHT22;10402;49.012;8.370;2023-07-22T15:33:43;26.40;42.10
20487;DHT22;10402;49.012;8.370;2023-07-22T15:36:09;26.40;42.20
20487;DHT22;10402;49.012;8.370;2023-07-22T15:38:34;26.40;42.00